createdAt,value
2022-08-25T00:03:44.473Z,7.72
2022-08-25T00:08:41.168Z,7.78
2022-08-25T00:13:35.334Z,8.02
2022-08-25T00:18:31.575Z,7.18
2022-08-25T00:23:27.217Z,7.28
2022-08-25T00:28:27.238Z,7.35
2022-08-25T00:33:21.331Z,7.63
2022-08-25T00:38:16.967Z,8.05
2022-08-25T00:43:10.763Z,7.35
2022-08-25T00:48:06.747Z,7.45
2022-08-25T00:53:09.103Z,7.68
2022-08-25T00:58:11.793Z,6.93
2022-08-25T01:03:07.838Z,7.45
2022-08-25T01:08:06.755Z,7.50
2022-08-25T01:13:07.022Z,7.18
2022-08-25T01:18:12.047Z,7.07
2022-08-25T01:23:07.776Z,7.03
2022-08-25T01:28:03.840Z,7.57
2022-08-25T01:32:58.104Z,8.05
2022-08-25T01:37:51.571Z,6.75
2022-08-25T01:42:58.848Z,7.88
2022-08-25T01:47:52.458Z,7.43
2022-08-25T01:52:52.963Z,7.60
2022-08-25T01:57:47.969Z,7.60
2022-08-25T02:02:47.411Z,7.10
2022-08-25T02:07:48.854Z,7.50
2022-08-25T02:12:42.539Z,7.00
2022-08-25T02:17:38.144Z,7.50
2022-08-25T02:22:33.719Z,7.07
2022-08-25T02:27:27.281Z,7.60
2022-08-25T02:32:23.148Z,7.40
2022-08-25T02:37:21.085Z,7.97
2022-08-25T02:42:17.542Z,7.75
2022-08-25T02:47:13.073Z,8.27
2022-08-25T02:57:01.675Z,8.00
2022-08-25T03:01:55.146Z,8.85
2022-08-25T03:06:48.814Z,8.13
2022-08-25T03:11:42.575Z,7.95
2022-08-25T03:16:37.572Z,8.95
2022-08-25T03:21:32.996Z,9.18
2022-08-25T03:26:53.353Z,8.77
2022-08-25T03:36:55.205Z,8.32
2022-08-25T03:41:52.050Z,8.32
2022-08-25T03:46:54.721Z,8.10
2022-08-25T03:52:05.993Z,8.75
2022-08-25T03:57:04.184Z,8.13
2022-08-25T04:02:21.483Z,8.23
2022-08-25T04:07:14.963Z,7.55
2022-08-25T04:12:37.871Z,8.38
2022-08-25T04:17:36.712Z,7.82
2022-08-25T04:27:30.725Z,7.47
2022-08-25T04:32:27.749Z,9.52
2022-08-25T04:37:22.771Z,8.48
2022-08-25T04:42:16.582Z,8.57
2022-08-25T04:47:14.443Z,8.65
2022-08-25T04:52:14.280Z,9.18
2022-08-25T04:57:12.667Z,8.55
2022-08-25T05:02:10.128Z,8.27
2022-08-25T05:07:04.484Z,7.75
2022-08-25T05:12:04.563Z,10.35
2022-08-25T05:16:59.693Z,9.85
2022-08-25T05:21:59.227Z,9.15
2022-08-25T05:26:52.770Z,8.23
2022-08-25T05:31:50.385Z,8.00
2022-08-25T05:36:54.837Z,8.55
2022-08-25T05:41:51.519Z,8.60
2022-08-25T05:46:48.435Z,7.47
2022-08-25T05:51:41.917Z,7.32
2022-08-25T05:56:41.845Z,6.90
2022-08-25T06:01:54.372Z,5.85
2022-08-25T06:06:55.127Z,6.75
2022-08-25T06:11:54.896Z,6.10
2022-08-25T06:16:51.800Z,7.43
2022-08-25T06:21:46.119Z,5.13
2022-08-25T06:26:57.113Z,4.75
2022-08-25T06:31:57.420Z,6.55
2022-08-25T06:36:56.986Z,4.65
2022-08-25T06:42:01.032Z,4.78
2022-08-25T06:46:57.890Z,5.90
2022-08-25T06:51:51.700Z,5.18
2022-08-25T06:56:51.215Z,5.40
2022-08-25T07:01:44.898Z,5.38
2022-08-25T07:06:40.112Z,4.88
2022-08-25T07:11:34.491Z,4.90
2022-08-25T07:16:29.759Z,5.20
2022-08-25T07:21:30.007Z,6.13
2022-08-25T07:26:37.743Z,5.15
2022-08-25T07:31:34.695Z,5.28
2022-08-25T07:36:31.873Z,5.38
2022-08-25T07:41:41.052Z,4.85
2022-08-25T07:46:55.896Z,5.55
2022-08-25T07:52:06.736Z,4.88
2022-08-25T07:57:11.901Z,5.00
2022-08-25T08:02:06.157Z,4.50
2022-08-25T08:06:59.944Z,5.18
2022-08-25T08:11:56.421Z,4.70
2022-08-25T08:16:51.339Z,4.80
2022-08-25T08:21:52.553Z,4.27
2022-08-25T08:26:58.756Z,4.95
2022-08-25T08:31:54.026Z,4.97
2022-08-25T08:36:47.678Z,5.20
2022-08-25T08:42:22.400Z,4.00
2022-08-25T08:47:28.324Z,5.22
2022-08-25T08:52:27.764Z,4.95
2022-08-25T08:57:29.839Z,4.20
2022-08-25T09:02:49.853Z,4.50
2022-08-25T09:07:48.997Z,4.82
2022-08-25T09:13:01.097Z,5.70
2022-08-25T09:18:08.523Z,4.20
2022-08-25T09:23:16.202Z,4.53
2022-08-25T09:28:34.434Z,4.78
2022-08-25T09:33:31.466Z,3.88
2022-08-25T09:38:32.637Z,3.95
2022-08-25T09:43:33.406Z,3.63
2022-08-25T09:48:30.390Z,4.22
2022-08-25T09:53:28.386Z,4.10
2022-08-25T09:58:27.680Z,4.70
2022-08-25T10:03:24.753Z,4.10
2022-08-25T10:08:31.837Z,4.30
2022-08-25T10:13:41.016Z,4.35
2022-08-25T10:18:35.080Z,4.00
2022-08-25T10:23:31.083Z,4.40
2022-08-25T10:28:32.338Z,4.78
2022-08-25T10:33:42.787Z,5.05
2022-08-25T10:38:45.719Z,3.80
2022-08-25T10:43:53.958Z,3.88
2022-08-25T10:49:05.309Z,3.80
2022-08-25T10:54:13.569Z,4.20
2022-08-25T10:59:30.053Z,3.85
2022-08-25T11:04:29.866Z,4.20
2022-08-25T11:09:36.433Z,3.95
2022-08-25T11:14:36.731Z,3.90
2022-08-25T11:19:55.841Z,4.10
2022-08-25T11:25:05.539Z,3.78
2022-08-25T11:30:08.448Z,4.25
2022-08-25T11:35:03.908Z,4.35
2022-08-25T11:40:14.166Z,4.65
2022-08-25T11:45:18.050Z,4.50
2022-08-25T11:50:32.642Z,4.70
2022-08-25T11:56:00.127Z,4.38
2022-08-25T12:01:18.088Z,4.43
2022-08-25T12:07:05.368Z,4.32
2022-08-25T12:12:01.507Z,4.63
2022-08-25T12:17:13.848Z,5.43
2022-08-25T12:28:51.125Z,4.80
2022-08-25T12:34:05.888Z,3.45
2022-08-25T12:39:29.768Z,4.20
2022-08-25T12:44:51.830Z,4.40
2022-08-25T12:49:49.804Z,4.55
2022-08-25T12:54:54.659Z,3.67
2022-08-25T12:59:58.030Z,4.50
2022-08-25T13:05:17.338Z,4.55
2022-08-25T13:10:32.644Z,4.25
2022-08-25T13:15:46.931Z,3.90
2022-08-25T13:20:43.946Z,4.88
2022-08-25T13:30:41.442Z,3.88
2022-08-25T13:36:19.045Z,3.92
2022-08-25T13:41:33.890Z,4.47
2022-08-25T13:46:37.721Z,4.20
2022-08-25T13:51:54.240Z,4.07
2022-08-25T13:56:48.304Z,3.83
2022-08-25T14:01:53.866Z,4.50
2022-08-25T14:07:13.789Z,4.43
2022-08-25T14:12:14.270Z,4.15
2022-08-25T14:25:00.947Z,4.82
2022-08-25T14:30:04.336Z,5.20
2022-08-25T14:35:09.907Z,4.72
2022-08-25T14:46:02.523Z,4.45
2022-08-25T14:51:30.263Z,5.00
2022-08-25T14:56:35.727Z,4.03
2022-08-25T15:02:04.041Z,4.13
2022-08-25T15:08:04.194Z,4.68
2022-08-25T15:13:15.523Z,4.43
2022-08-25T15:18:31.212Z,4.32
2022-08-25T15:23:39.025Z,4.30
2022-08-25T15:29:28.330Z,4.57
2022-08-25T15:35:12.541Z,4.90
2022-08-25T15:40:18.264Z,3.90
2022-08-25T15:51:08.892Z,5.50
2022-08-25T15:56:34.790Z,4.70
2022-08-25T16:01:34.804Z,4.85
2022-08-25T16:12:37.126Z,4.80
2022-08-25T16:18:14.852Z,4.70
2022-08-25T16:23:31.856Z,4.95
2022-08-25T16:28:40.903Z,4.82
2022-08-25T16:34:07.682Z,6.25
2022-08-25T16:39:14.944Z,5.43
2022-08-25T16:44:23.287Z,5.93
2022-08-25T16:57:59.669Z,5.05
2022-08-25T17:03:39.064Z,5.88
2022-08-25T17:09:23.929Z,5.38
2022-08-25T17:20:22.044Z,6.45
2022-08-25T17:32:16.835Z,6.65
2022-08-25T17:37:28.945Z,7.15
2022-08-25T17:42:43.037Z,22.50
2022-08-25T17:47:47.506Z,11.00
2022-08-25T17:52:44.809Z,10.63
2022-08-25T18:02:57.683Z,8.05
2022-08-25T18:07:56.203Z,9.02
2022-08-25T18:12:55.521Z,7.82
2022-08-25T18:18:27.356Z,8.50
2022-08-25T18:24:18.136Z,7.63
2022-08-25T18:29:31.179Z,6.75
2022-08-25T18:34:52.967Z,6.60
2022-08-25T18:40:14.055Z,5.22
2022-08-25T18:46:03.228Z,6.45
2022-08-25T18:51:45.641Z,5.50
2022-08-25T18:57:15.394Z,6.07
2022-08-25T19:02:48.076Z,5.90
2022-08-25T19:08:11.950Z,6.20
2022-08-25T19:13:43.365Z,5.00
2022-08-25T19:18:42.192Z,6.03
2022-08-25T19:25:33.129Z,5.72
2022-08-25T19:31:13.235Z,5.57
2022-08-25T19:37:42.069Z,5.47
2022-08-25T19:43:36.210Z,5.47
2022-08-25T19:49:43.519Z,5.05
2022-08-25T19:54:56.068Z,5.00
2022-08-25T19:59:54.054Z,4.90
2022-08-25T20:05:13.245Z,5.22
2022-08-25T20:10:17.914Z,4.60
2022-08-25T20:15:26.095Z,4.20
2022-08-25T20:26:46.712Z,4.47
2022-08-25T20:31:46.265Z,4.63
2022-08-25T20:36:50.157Z,5.32
2022-08-25T20:41:48.149Z,4.20
2022-08-25T20:46:49.001Z,4.45
2022-08-25T20:52:00.788Z,4.95
2022-08-25T20:56:57.756Z,4.90
2022-08-25T21:02:23.225Z,4.15
2022-08-25T21:07:31.583Z,4.95
2022-08-25T21:12:38.451Z,4.50
2022-08-25T21:17:34.126Z,4.32
2022-08-25T21:22:31.690Z,5.35
2022-08-25T21:27:37.470Z,4.63
2022-08-25T21:32:37.756Z,5.00
2022-08-25T21:37:53.129Z,4.75
2022-08-25T21:42:56.988Z,5.13
2022-08-25T21:47:56.492Z,4.22
2022-08-25T21:52:59.822Z,4.57
2022-08-25T21:57:54.874Z,4.65
2022-08-25T22:03:00.408Z,4.68
2022-08-25T22:08:02.700Z,4.00
2022-08-25T22:12:58.970Z,4.93
2022-08-25T22:17:55.190Z,4.70
2022-08-25T22:22:53.057Z,4.40
2022-08-25T22:33:22.004Z,4.97
2022-08-25T22:43:16.745Z,4.32
2022-08-25T22:48:14.533Z,4.05
2022-08-25T22:53:14.890Z,3.85
2022-08-25T22:58:08.862Z,4.32
2022-08-25T23:03:15.283Z,4.80
2022-08-25T23:08:13.447Z,4.57
2022-08-25T23:13:19.377Z,4.05
2022-08-25T23:18:40.556Z,4.20
2022-08-25T23:23:50.807Z,4.55
2022-08-25T23:28:57.209Z,4.55
2022-08-25T23:33:53.637Z,4.80
2022-08-25T23:38:51.514Z,4.10
2022-08-25T23:43:46.823Z,4.53
2022-08-25T23:48:47.676Z,5.07
2022-08-25T23:53:42.699Z,5.18
2022-08-25T23:58:36.407Z,4.38
